createdAt,value
2017-10-09T00:02:01.744Z,83.80
2017-10-09T00:04:29.910Z,83.90
2017-10-09T00:06:58.448Z,84.10
2017-10-09T00:09:26.571Z,84.20
2017-10-09T00:11:55.023Z,84.40
2017-10-09T00:14:23.198Z,84.60
2017-10-09T00:16:51.373Z,84.80
2017-10-09T00:19:19.750Z,84.90
2017-10-09T00:21:47.915Z,85.00
2017-10-09T00:24:16.113Z,85.10
2017-10-09T00:26:44.416Z,85.20
2017-10-09T00:29:12.762Z,85.30
2017-10-09T00:31:41.278Z,85.40
2017-10-09T00:34:09.453Z,85.40
2017-10-09T00:36:37.531Z,85.60
2017-10-09T00:39:05.749Z,85.70
2017-10-09T00:41:34.164Z,85.70
2017-10-09T00:44:02.338Z,85.60
2017-10-09T00:46:30.675Z,85.50
2017-10-09T00:48:59.080Z,85.50
2017-10-09T00:51:27.770Z,85.50
2017-10-09T00:53:55.922Z,85.40
2017-10-09T00:56:24.462Z,85.30
2017-10-09T00:58:52.598Z,85.30
2017-10-09T01:01:20.741Z,85.30
2017-10-09T01:03:48.946Z,85.30
2017-10-09T01:06:17.388Z,85.30
2017-10-09T01:08:45.543Z,85.90
2017-10-09T01:11:13.759Z,85.00
2017-10-09T01:13:41.918Z,84.90
2017-10-09T01:16:10.426Z,84.80
2017-10-09T01:18:38.782Z,84.70
2017-10-09T01:21:07.086Z,84.80
2017-10-09T01:23:35.224Z,84.90
2017-10-09T01:26:03.377Z,84.80
2017-10-09T01:28:32.255Z,85.10
2017-10-09T01:31:00.395Z,85.00
2017-10-09T01:33:28.800Z,85.00
2017-10-09T01:35:56.942Z,85.00
2017-10-09T01:38:25.490Z,84.90
2017-10-09T01:40:54.351Z,84.90
2017-10-09T01:43:22.498Z,84.70
2017-10-09T01:45:50.878Z,84.90
2017-10-09T01:48:19.002Z,84.90
2017-10-09T01:50:47.913Z,84.60
2017-10-09T01:53:16.034Z,84.50
2017-10-09T01:55:44.182Z,84.50
2017-10-09T01:58:12.465Z,84.50
2017-10-09T02:00:40.607Z,84.50
2017-10-09T02:03:09.066Z,84.40
2017-10-09T02:05:37.206Z,84.20
2017-10-09T02:08:05.410Z,84.30
2017-10-09T02:10:34.312Z,84.00
2017-10-09T02:13:03.203Z,84.80
2017-10-09T02:15:32.090Z,83.90
2017-10-09T02:18:00.934Z,83.90
2017-10-09T02:20:29.056Z,83.80
2017-10-09T02:22:57.998Z,83.90
2017-10-09T02:25:26.680Z,83.80
2017-10-09T02:27:54.907Z,83.90
2017-10-09T02:30:23.831Z,83.80
2017-10-09T02:32:52.001Z,83.60
2017-10-09T02:35:20.478Z,83.80
2017-10-09T02:37:48.783Z,84.00
2017-10-09T02:40:17.342Z,84.20
2017-10-09T02:42:45.487Z,84.10
2017-10-09T02:45:13.613Z,84.00
2017-10-09T02:47:41.783Z,83.80
2017-10-09T02:50:09.890Z,83.70
2017-10-09T02:52:38.238Z,83.90
2017-10-09T02:55:06.402Z,83.80
2017-10-09T02:57:34.627Z,83.90
2017-10-09T03:00:03.659Z,84.00
2017-10-09T03:02:32.274Z,84.00
2017-10-09T03:05:00.446Z,83.90
2017-10-09T03:07:28.587Z,83.90
2017-10-09T03:09:56.818Z,83.90
2017-10-09T03:12:24.986Z,83.90
2017-10-09T03:14:53.546Z,83.90
2017-10-09T03:17:21.789Z,83.90
2017-10-09T03:19:49.979Z,83.90
2017-10-09T03:22:18.174Z,83.80
2017-10-09T03:24:46.388Z,83.80
2017-10-09T03:27:14.647Z,83.70
2017-10-09T03:29:43.382Z,83.80
2017-10-09T03:32:11.574Z,83.80
2017-10-09T03:34:39.803Z,83.90
2017-10-09T03:37:07.992Z,84.20
2017-10-09T03:39:36.519Z,84.20
2017-10-09T03:42:04.728Z,84.30
2017-10-09T03:44:32.901Z,84.40
2017-10-09T03:47:01.015Z,84.50
2017-10-09T03:49:29.230Z,84.50
2017-10-09T03:51:57.407Z,84.50
2017-10-09T03:54:26.071Z,85.40
2017-10-09T03:56:54.194Z,84.80
2017-10-09T03:59:23.031Z,85.20
2017-10-09T04:01:51.168Z,85.10
2017-10-09T04:04:19.317Z,85.30
2017-10-09T04:06:47.466Z,85.40
2017-10-09T04:09:15.587Z,85.50
2017-10-09T04:11:43.778Z,85.60
2017-10-09T04:14:11.908Z,85.50
2017-10-09T04:16:41.530Z,85.70
2017-10-09T04:19:10.384Z,86.60
2017-10-09T04:21:38.926Z,85.90
2017-10-09T04:24:07.789Z,86.50
2017-10-09T04:26:36.668Z,86.50
2017-10-09T04:29:04.917Z,86.50
2017-10-09T04:31:33.117Z,86.50
2017-10-09T04:34:01.370Z,86.50
2017-10-09T04:36:29.542Z,86.80
2017-10-09T04:38:57.695Z,87.00
2017-10-09T04:41:26.055Z,87.20
2017-10-09T04:43:54.558Z,87.50
2017-10-09T04:46:22.807Z,88.00
2017-10-09T04:48:51.011Z,88.50
2017-10-09T04:51:19.196Z,88.90
2017-10-09T04:53:47.332Z,89.10
2017-10-09T04:56:16.185Z,89.10
2017-10-09T04:58:44.410Z,89.00
2017-10-09T05:01:12.632Z,89.10
2017-10-09T05:03:40.783Z,89.90
2017-10-09T05:06:09.406Z,89.10
2017-10-09T05:08:39.082Z,89.60
2017-10-09T05:11:07.214Z,89.60
2017-10-09T05:13:35.377Z,89.90
2017-10-09T05:16:03.528Z,89.80
2017-10-09T05:18:31.701Z,89.80
2017-10-09T05:20:59.862Z,89.70
2017-10-09T05:23:28.347Z,89.70
2017-10-09T05:25:56.466Z,89.50
2017-10-09T05:28:24.587Z,89.50
2017-10-09T05:30:52.700Z,89.40
2017-10-09T05:33:21.607Z,89.50
2017-10-09T05:35:50.470Z,89.40
2017-10-09T05:38:18.607Z,89.40
2017-10-09T05:40:46.727Z,89.50
2017-10-09T05:43:14.867Z,89.40
2017-10-09T05:45:42.971Z,89.30
2017-10-09T05:48:12.269Z,89.20
2017-10-09T05:50:40.379Z,89.10
2017-10-09T05:53:08.558Z,89.30
2017-10-09T05:55:36.725Z,89.30
2017-10-09T05:58:04.861Z,89.40
2017-10-09T06:00:32.970Z,89.40
2017-10-09T06:03:01.065Z,89.30
2017-10-09T06:05:29.192Z,89.00
2017-10-09T06:07:58.091Z,88.90
2017-10-09T06:10:27.250Z,88.70
2017-10-09T06:12:55.374Z,88.50
2017-10-09T06:15:23.493Z,88.30
2017-10-09T06:17:51.614Z,88.10
2017-10-09T06:20:20.485Z,87.60
2017-10-09T06:22:49.350Z,87.30
2017-10-09T06:25:17.518Z,87.30
2017-10-09T06:27:45.610Z,87.00
2017-10-09T06:30:13.709Z,86.80
2017-10-09T06:32:41.865Z,86.40
2017-10-09T06:35:10.366Z,86.00
2017-10-09T06:37:38.468Z,85.80
2017-10-09T06:40:06.602Z,85.80
2017-10-09T06:42:34.726Z,85.60
2017-10-09T06:45:02.859Z,86.00
2017-10-09T06:47:31.722Z,84.90
2017-10-09T06:50:00.792Z,84.80
2017-10-09T06:52:28.930Z,84.60
2017-10-09T06:54:57.602Z,84.50
2017-10-09T06:57:26.449Z,84.10
2017-10-09T06:59:54.599Z,84.10
2017-10-09T07:02:22.709Z,84.00
2017-10-09T07:04:50.850Z,83.90
2017-10-09T07:07:18.952Z,83.70
2017-10-09T07:09:47.774Z,83.50
2017-10-09T07:12:16.242Z,83.50
2017-10-09T07:14:44.337Z,83.50
2017-10-09T07:17:12.494Z,83.30
2017-10-09T07:19:41.375Z,83.00
2017-10-09T07:22:09.470Z,83.00
2017-10-09T07:24:37.618Z,82.80
2017-10-09T07:27:05.738Z,82.60
2017-10-09T07:29:33.867Z,82.40
2017-10-09T07:32:02.310Z,82.20
2017-10-09T07:34:30.422Z,82.90
2017-10-09T07:36:58.525Z,82.00
2017-10-09T07:39:26.631Z,82.00
2017-10-09T07:41:54.732Z,81.40
2017-10-09T07:44:22.841Z,81.00
2017-10-09T07:46:50.930Z,80.90
2017-10-09T07:49:19.054Z,80.80
2017-10-09T07:51:47.534Z,80.60
2017-10-09T07:54:15.682Z,80.30
2017-10-09T07:56:43.775Z,80.20
2017-10-09T07:59:11.858Z,80.10
2017-10-09T08:01:40.007Z,80.00
2017-10-09T08:07:07.703Z,80.10
2017-10-09T08:09:36.059Z,80.10
2017-10-09T08:12:04.542Z,80.00
2017-10-09T08:14:32.678Z,79.80
2017-10-09T08:17:01.214Z,79.60
2017-10-09T08:19:30.052Z,79.20
2017-10-09T08:21:58.161Z,79.10
2017-10-09T08:24:26.275Z,78.80
2017-10-09T08:26:55.131Z,78.20
2017-10-09T08:29:23.247Z,78.10
2017-10-09T08:31:52.130Z,77.50
2017-10-09T08:34:21.060Z,77.70
2017-10-09T08:36:49.169Z,77.50
2017-10-09T08:39:17.542Z,77.60
2017-10-09T08:41:45.635Z,77.50
2017-10-09T08:44:14.809Z,77.50
2017-10-09T08:46:42.888Z,77.30
2017-10-09T08:49:11.007Z,77.00
2017-10-09T08:51:39.120Z,77.00
2017-10-09T08:54:07.294Z,77.10
2017-10-09T08:56:35.610Z,77.30
2017-10-09T08:59:03.751Z,77.20
2017-10-09T09:01:31.872Z,77.10
2017-10-09T09:04:00.358Z,77.00
2017-10-09T09:06:28.515Z,76.80
2017-10-09T09:08:56.623Z,76.70
2017-10-09T09:11:24.964Z,77.10
2017-10-09T09:13:53.824Z,77.80
2017-10-09T09:16:21.936Z,77.60
2017-10-09T09:18:50.831Z,77.70
2017-10-09T09:21:18.943Z,77.60
2017-10-09T09:23:47.051Z,77.60
2017-10-09T09:26:15.138Z,77.60
2017-10-09T09:28:43.706Z,77.50
2017-10-09T09:31:11.838Z,77.40
2017-10-09T09:33:40.016Z,77.00
2017-10-09T09:36:08.125Z,76.40
2017-10-09T09:38:36.230Z,76.10
2017-10-09T09:41:04.334Z,76.00
2017-10-09T09:43:32.438Z,75.60
2017-10-09T09:46:00.538Z,75.60
2017-10-09T09:48:28.729Z,74.60
2017-10-09T09:50:56.875Z,74.00
2017-10-09T09:53:25.303Z,73.60
2017-10-09T09:55:53.410Z,72.90
2017-10-09T09:58:21.510Z,72.80
2017-10-09T10:00:49.972Z,72.80
2017-10-09T10:03:18.119Z,72.50
2017-10-09T10:05:46.423Z,70.80
2017-10-09T10:08:14.544Z,70.70
2017-10-09T10:10:42.678Z,70.70
2017-10-09T10:13:11.237Z,68.80
2017-10-09T10:15:39.334Z,67.80
2017-10-09T10:18:08.199Z,67.90
2017-10-09T10:20:36.330Z,67.90
2017-10-09T10:23:04.443Z,67.70
2017-10-09T10:25:32.546Z,67.70
2017-10-09T10:28:00.655Z,66.10
2017-10-09T10:30:28.783Z,65.10
2017-10-09T10:32:57.673Z,64.20
2017-10-09T10:35:26.155Z,64.20
2017-10-09T10:37:55.011Z,64.70
2017-10-09T10:40:23.103Z,63.70
2017-10-09T10:42:51.230Z,64.10
2017-10-09T10:45:19.358Z,64.20
2017-10-09T10:47:47.698Z,63.80
2017-10-09T10:50:15.810Z,62.40
2017-10-09T10:52:43.959Z,61.60
2017-10-09T10:55:12.102Z,61.80
2017-10-09T10:57:41.698Z,61.90
2017-10-09T11:00:09.831Z,60.60
2017-10-09T11:02:37.924Z,61.20
2017-10-09T11:05:06.070Z,61.50
2017-10-09T11:07:34.171Z,62.00
2017-10-09T11:10:03.255Z,61.30
2017-10-09T11:12:32.138Z,61.40
2017-10-09T11:15:00.286Z,61.30
2017-10-09T11:17:28.426Z,60.20
2017-10-09T11:19:56.552Z,59.90
2017-10-09T11:22:25.043Z,59.60
2017-10-09T11:24:53.155Z,59.80
2017-10-09T11:27:21.287Z,60.10
2017-10-09T11:29:49.427Z,59.60
2017-10-09T11:32:17.522Z,59.30
2017-10-09T11:34:45.646Z,59.20
2017-10-09T11:37:14.903Z,59.70
2017-10-09T11:39:43.423Z,60.00
2017-10-09T11:42:11.550Z,59.90
2017-10-09T11:44:41.702Z,60.50
2017-10-09T11:47:09.814Z,60.50
2017-10-09T11:49:37.933Z,60.40
2017-10-09T11:52:06.806Z,60.80
2017-10-09T11:54:34.920Z,60.70
2017-10-09T11:57:03.051Z,60.60
2017-10-09T11:59:31.167Z,60.70
2017-10-09T12:01:59.576Z,60.80
2017-10-09T12:04:27.687Z,60.90
2017-10-09T12:06:55.814Z,61.10
2017-10-09T12:09:23.950Z,61.60
2017-10-09T12:11:52.802Z,61.70
2017-10-09T12:14:20.924Z,61.60
2017-10-09T12:16:49.773Z,62.10
2017-10-09T12:19:17.922Z,62.10
2017-10-09T12:21:46.050Z,62.30
2017-10-09T12:24:14.226Z,63.00
2017-10-09T12:26:43.527Z,63.50
2017-10-09T12:29:12.420Z,65.10
2017-10-09T12:31:41.270Z,64.90
2017-10-09T12:34:09.385Z,64.70
2017-10-09T12:36:38.229Z,64.60
2017-10-09T12:39:06.334Z,64.60
2017-10-09T12:41:35.208Z,64.60
2017-10-09T12:44:03.391Z,64.60
2017-10-09T12:46:31.530Z,65.00
2017-10-09T12:48:59.683Z,65.10
2017-10-09T12:51:28.130Z,65.50
2017-10-09T12:53:57.014Z,65.20
2017-10-09T12:56:25.144Z,65.20
2017-10-09T12:58:53.280Z,66.40
2017-10-09T13:01:21.390Z,65.60
2017-10-09T13:03:49.516Z,65.70
2017-10-09T13:06:18.392Z,65.90
2017-10-09T13:08:46.527Z,65.90
2017-10-09T13:11:14.700Z,66.20
2017-10-09T13:13:42.878Z,66.30
2017-10-09T13:16:11.335Z,66.50
2017-10-09T13:18:39.470Z,66.50
2017-10-09T13:21:07.646Z,67.00
2017-10-09T13:23:35.797Z,67.40
2017-10-09T13:26:04.012Z,67.40
2017-10-09T13:28:32.960Z,67.60
2017-10-09T13:31:01.257Z,67.60
2017-10-09T13:33:29.451Z,68.20
2017-10-09T13:35:58.411Z,67.80
2017-10-09T13:38:26.758Z,67.80
2017-10-09T13:40:54.994Z,67.80
2017-10-09T13:43:23.522Z,68.00
2017-10-09T13:45:51.666Z,68.10
2017-10-09T13:48:21.027Z,68.10
2017-10-09T13:50:49.252Z,68.00
2017-10-09T13:53:17.444Z,68.60
2017-10-09T13:55:45.635Z,68.30
2017-10-09T13:58:13.982Z,67.70
2017-10-09T14:00:42.309Z,66.70
2017-10-09T14:03:10.525Z,66.30
2017-10-09T14:05:38.739Z,66.50
2017-10-09T14:08:06.916Z,66.70
2017-10-09T14:10:35.130Z,67.00
2017-10-09T14:13:03.342Z,66.80
2017-10-09T14:15:31.904Z,67.00
2017-10-09T14:18:00.266Z,67.50
2017-10-09T14:20:28.449Z,68.00
2017-10-09T14:22:56.981Z,68.30
2017-10-09T14:25:25.232Z,68.50
2017-10-09T14:27:54.313Z,68.80
2017-10-09T14:30:22.488Z,68.90
2017-10-09T14:40:15.869Z,71.40
2017-10-09T14:42:45.498Z,73.20
2017-10-09T14:45:14.474Z,73.90
2017-10-09T14:47:43.067Z,73.70
2017-10-09T14:50:11.243Z,74.20
2017-10-09T14:52:39.769Z,74.80
2017-10-09T14:55:07.895Z,74.70
2017-10-09T14:57:35.995Z,75.10
2017-10-09T15:00:04.230Z,75.30
2017-10-09T15:02:32.353Z,75.60
2017-10-09T15:05:00.489Z,75.70
2017-10-09T15:07:28.642Z,76.10
2017-10-09T15:09:57.207Z,77.10
2017-10-09T15:12:25.342Z,76.70
2017-10-09T15:14:54.435Z,77.10
2017-10-09T15:17:22.580Z,77.30
2017-10-09T15:19:50.782Z,77.60
2017-10-09T15:22:19.107Z,77.80
2017-10-09T15:24:47.252Z,78.10
2017-10-09T15:27:15.375Z,78.20
2017-10-09T15:29:43.823Z,78.30
2017-10-09T15:32:11.958Z,78.50
2017-10-09T15:34:40.099Z,78.60
2017-10-09T15:37:08.247Z,78.50
2017-10-09T15:39:36.380Z,78.20
2017-10-09T15:42:05.339Z,78.10
2017-10-09T15:44:33.471Z,78.00
2017-10-09T15:47:01.619Z,78.10
2017-10-09T15:49:29.763Z,78.20
2017-10-09T15:51:57.945Z,78.50
2017-10-09T15:54:28.078Z,79.40
2017-10-09T15:56:56.215Z,79.30
2017-10-09T15:59:24.424Z,79.60
2017-10-09T16:01:52.640Z,80.00
2017-10-09T16:04:20.879Z,80.50
2017-10-09T16:06:49.789Z,81.10
2017-10-09T16:09:17.906Z,81.10
2017-10-09T16:11:46.331Z,81.50
2017-10-09T16:14:15.247Z,82.10
2017-10-09T16:16:43.395Z,81.90
2017-10-09T16:19:11.524Z,82.20
2017-10-09T16:21:39.682Z,82.40
2017-10-09T16:24:07.813Z,82.60
2017-10-09T16:26:35.955Z,82.70
2017-10-09T16:29:04.410Z,82.90
2017-10-09T16:31:32.507Z,83.00
2017-10-09T16:34:00.635Z,83.20
2017-10-09T16:36:28.754Z,83.40
2017-10-09T16:38:56.879Z,83.40
2017-10-09T16:41:25.012Z,83.50
2017-10-09T16:43:53.888Z,84.90
2017-10-09T16:46:22.017Z,83.90
2017-10-09T16:48:50.164Z,84.50
2017-10-09T16:51:18.287Z,84.70
2017-10-09T16:53:46.844Z,84.90
2017-10-09T16:56:14.976Z,85.10
2017-10-09T16:58:43.115Z,85.30
2017-10-09T17:01:11.223Z,85.30
2017-10-09T17:03:39.359Z,85.60
2017-10-09T17:06:07.570Z,85.70
2017-10-09T17:08:35.708Z,85.70
2017-10-09T17:11:03.823Z,86.10
2017-10-09T17:13:32.026Z,86.50
2017-10-09T17:16:00.911Z,86.60
2017-10-09T17:18:30.215Z,86.50
2017-10-09T17:20:58.351Z,86.40
2017-10-09T17:23:26.495Z,86.70
2017-10-09T17:25:54.654Z,86.70
2017-10-09T17:28:22.807Z,86.80
2017-10-09T17:30:50.940Z,87.00
2017-10-09T17:33:19.090Z,87.10
2017-10-09T17:35:47.223Z,87.30
2017-10-09T17:38:15.867Z,87.10
2017-10-09T17:40:44.067Z,87.30
2017-10-09T17:43:12.958Z,87.90
2017-10-09T17:45:41.882Z,88.10
2017-10-09T17:48:10.043Z,88.00
2017-10-09T17:50:38.170Z,88.30
2017-10-09T17:53:06.327Z,88.30
2017-10-09T17:55:34.459Z,88.50
2017-10-09T17:58:02.578Z,88.60
2017-10-09T18:00:30.699Z,88.60
2017-10-09T18:02:59.591Z,88.80
2017-10-09T18:05:28.523Z,88.80
2017-10-09T18:07:56.655Z,88.80
2017-10-09T18:10:24.788Z,88.90
2017-10-09T18:12:52.926Z,89.00
2017-10-09T18:15:21.098Z,89.20
2017-10-09T18:17:49.651Z,89.30
2017-10-09T18:20:17.798Z,89.70
2017-10-09T18:22:45.932Z,89.50
2017-10-09T18:25:14.115Z,89.80
2017-10-09T18:27:43.058Z,89.80
2017-10-09T18:30:11.190Z,90.00
2017-10-09T18:32:39.311Z,89.90
2017-10-09T18:35:07.477Z,89.80
2017-10-09T18:37:36.107Z,89.90
2017-10-09T18:40:04.271Z,89.70
2017-10-09T18:42:32.488Z,89.80
2017-10-09T18:45:00.729Z,89.90
2017-10-09T18:47:28.927Z,89.90
2017-10-09T18:49:57.111Z,89.80
2017-10-09T18:52:25.247Z,89.80
2017-10-09T18:54:53.374Z,89.90
2017-10-09T18:57:22.249Z,89.90
2017-10-09T18:59:50.783Z,89.80
2017-10-09T19:02:19.683Z,90.00
2017-10-09T19:04:47.819Z,90.00
2017-10-09T19:07:15.987Z,90.10
2017-10-09T19:09:44.140Z,90.20
2017-10-09T19:12:12.262Z,90.50
2017-10-09T19:14:40.423Z,90.60
2017-10-09T19:17:08.551Z,90.60
2017-10-09T19:19:36.706Z,90.70
2017-10-09T19:22:05.251Z,90.70
2017-10-09T19:24:34.160Z,90.80
2017-10-09T19:27:03.063Z,90.90
2017-10-09T19:29:31.270Z,90.80
2017-10-09T19:31:59.419Z,91.00
2017-10-09T19:34:27.559Z,91.10
2017-10-09T19:36:55.674Z,91.20
2017-10-09T19:39:23.818Z,91.30
2017-10-09T19:41:52.851Z,91.50
2017-10-09T19:44:21.435Z,91.30
2017-10-09T19:46:49.566Z,91.50
2017-10-09T19:49:17.889Z,91.70
2017-10-09T19:51:46.619Z,91.90
2017-10-09T19:54:14.728Z,91.90
2017-10-09T19:56:43.006Z,92.00
2017-10-09T20:05:34.694Z,92.30
2017-10-09T20:08:04.900Z,92.40
2017-10-09T20:10:33.272Z,92.40
2017-10-09T20:13:01.640Z,92.40
2017-10-09T20:15:30.913Z,91.40
2017-10-09T20:17:59.224Z,91.40
2017-10-09T20:20:29.649Z,90.20
2017-10-09T20:22:58.331Z,90.60
2017-10-09T20:25:26.661Z,90.30
2017-10-09T20:27:55.048Z,90.70
2017-10-09T20:30:25.183Z,89.80
2017-10-09T20:32:53.587Z,89.60
2017-10-09T20:35:22.247Z,89.40
2017-10-09T20:37:50.900Z,89.20
2017-10-09T20:40:19.799Z,88.90
2017-10-09T20:42:48.265Z,88.70
2017-10-09T20:45:16.804Z,88.50
2017-10-09T20:47:46.517Z,88.30
2017-10-09T20:50:15.105Z,88.20
2017-10-09T20:52:43.803Z,88.40
2017-10-09T20:55:12.352Z,88.30
2017-10-09T20:57:40.676Z,88.00
2017-10-09T21:00:09.907Z,87.70
2017-10-09T21:02:38.565Z,87.70
2017-10-09T21:05:07.096Z,87.80
2017-10-09T21:07:36.208Z,88.00
2017-10-09T21:10:04.905Z,88.10
2017-10-09T21:12:33.334Z,88.50
2017-10-09T21:15:02.009Z,88.80
2017-10-09T21:17:30.475Z,89.00
2017-10-09T21:19:59.365Z,89.10
2017-10-09T21:22:28.171Z,89.40
2017-10-09T21:24:56.875Z,89.40
2017-10-09T21:27:25.396Z,89.50
2017-10-09T21:29:53.875Z,89.60
2017-10-09T21:32:22.307Z,89.80
2017-10-09T21:34:50.631Z,90.00
2017-10-09T21:37:20.645Z,90.20
2017-10-09T21:39:50.003Z,90.20
2017-10-09T21:42:18.319Z,90.50
2017-10-09T21:44:46.956Z,90.60
2017-10-09T21:47:15.467Z,90.60
2017-10-09T21:49:44.359Z,90.80
2017-10-09T21:52:13.032Z,90.70
2017-10-09T21:54:41.339Z,90.70
2017-10-09T21:57:09.653Z,90.80
2017-10-09T21:59:39.916Z,90.60
2017-10-09T22:02:08.900Z,90.60
2017-10-09T22:04:37.743Z,90.50
2017-10-09T22:07:06.041Z,90.40
2017-10-09T22:09:34.754Z,90.50
2017-10-09T22:12:03.643Z,90.60
2017-10-09T22:14:32.360Z,90.60
2017-10-09T22:17:00.963Z,90.50
2017-10-09T22:19:29.409Z,90.30
2017-10-09T22:21:58.010Z,90.50
2017-10-09T22:24:26.722Z,90.50
2017-10-09T22:26:55.375Z,90.50
2017-10-09T22:29:24.088Z,90.40
2017-10-09T22:31:53.092Z,90.60
2017-10-09T22:34:21.874Z,90.60
2017-10-09T22:36:50.690Z,90.80
2017-10-09T22:39:19.248Z,91.00
2017-10-09T22:41:47.931Z,91.10
2017-10-09T22:44:16.635Z,91.10
2017-10-09T22:46:45.688Z,91.30
2017-10-09T22:49:14.367Z,92.00
2017-10-09T22:51:43.019Z,92.20
2017-10-09T22:54:11.611Z,91.80
2017-10-09T22:56:40.267Z,92.00
2017-10-09T22:59:09.343Z,92.50
2017-10-09T23:01:38.187Z,92.30
2017-10-09T23:04:06.987Z,92.50
2017-10-09T23:06:35.613Z,92.60
2017-10-09T23:09:04.303Z,92.80
2017-10-09T23:11:33.006Z,93.70
2017-10-09T23:14:02.379Z,93.40
2017-10-09T23:16:30.891Z,94.00
2017-10-09T23:18:59.357Z,93.60
2017-10-09T23:21:28.323Z,94.00
2017-10-09T23:23:57.212Z,94.00
2017-10-09T23:26:26.106Z,94.20
2017-10-09T23:28:55.179Z,94.20
2017-10-09T23:31:23.750Z,94.20
2017-10-09T23:33:52.085Z,94.30
2017-10-09T23:36:21.055Z,94.10
2017-10-09T23:38:49.754Z,94.20
2017-10-09T23:41:19.628Z,94.30
2017-10-09T23:43:48.515Z,94.20
2017-10-09T23:46:17.244Z,94.40
2017-10-09T23:48:45.774Z,94.50
2017-10-09T23:51:14.370Z,94.60
2017-10-09T23:53:43.223Z,94.60
2017-10-09T23:56:11.615Z,94.90
2017-10-09T23:58:40.768Z,95.10
